Atlantic - Newfoundland: Past 24 Hour Conditions

 

Blanc-Sablon Airport

04:00 AM AST 31 August 2014
This table is a summary of hourly weather conditions for the past 24 hours.
Date / Time
(AST)
Wind(knots) Conditions Visibility(km) Pressure(kPa) Air tempC) Relative humidity(%) Dew pointC)
31 August 2014
4:00 WSW 10 Fog 0.2 100.8 10 99 10
3:00 W 9 Fog 0.4 100.8 10 99 10
2:00 W 8 Fog 0.8 100.8 11 99 10
1:00 W 11 Fog 6 100.7 11 97 11
0:00 W 14 gust 23 Fog 5 100.8 11 97 11
30 August 2014
23:00 WSW 15 gust 22 Fog 6 100.8 11 95 11
22:00 WSW 17 gust 25 Fog 10 100.8 11 94 11
21:00 SW 16 gust 24 Light Rain 8 100.8 11 95 11
20:00 SW 17 gust 25 Light Rain 6 100.9 11 95 10
19:00 SW 18 gust 26 Fog 6 101.0 12 94 11
18:00 WSW 15 gust 20 Fog 8 101.0 12 94 11
17:00 SW 16 gust 23 Fog 10 101.0 12 94 11
16:00 SW 22 gust 29 Cloudy 16 101.0 13 91 11
15:00 SW 18 gust 27 Cloudy 16 101.1 13 83 10
14:00 WSW 13 gust 21 Cloudy 16 101.2 14 81 10
13:00 WSW 19 gust 25 Mostly Cloudy 13 101.2 14 83 11
12:00 W 11 Mostly Cloudy 13 101.2 14 85 11
11:00 WSW 13 Partly Cloudy 24 101.3 13 83 10
10:00 WSW 11 gust 17 Partly Cloudy 24 101.3 12 84 10
9:00 WSW 9 Mainly Sunny 24 101.4 11 88 10
8:00 WSW 6 Mainly Sunny 24 101.4 10 90 9
7:00 WSW 3 Fog 2 101.4 9 99 9
6:00 E 2 Fog 0.4 101.4 7 99 7
5:00 calm Fog 5 101.4 7 99 7
4:00 NNE 4 Fog 1 101.5 7 99 7
 
Map of Atlantic - Newfoundland marine weather areas Southwestern Grand Banks - 44138 Banquereau - 44139 Tail of the Bank - 44140 Nickerson Bank - 44251 Northeast Burgeo Bank - 44255 Blanc-Sablon Airport Cap Whittle Chevery Natashquan Airport Heath Point Miscou Island Grand Étang Ingonish Beach North Mountain St.Paul Island J.A. Douglas McCurdy Sydney Airport Charlottetown Airport East Point North Cape Argentia Bonavista Burgeo Cape Race Corner Brook Daniel's Harbour Englee Ferolle Point La Scie Port aux Basques Rocky Harbour Sagona Island St. Anthony Airport St. John's Int'l Airport St. Lawrence Stephenville Airport Twillingate Winterland Wreckhouse Cartwright Airport Mary's Harbour Grates Cove Pool's Island Marticot Island Long Pond Îles de la Madeleine Airport
Legend: buoyBuoy land stationLand Station